North Battleford Airport
CYQW : now visible

Airfield :











YOU CAN JOIN US ON...

 
LOGIN :

Register | Disclaimer

   EN    FR    IT 

 









Legend :    VFR   Marginal VFR   IFR   Intensive IFR   Very Intensive IFR
Visi :
Ceiling :
>= 8 km
>= 3000ft
5 to 8 km
1000 to 3000 ft
1500m to 5 km
500 to 1000 ft
800 to 1500m
200 to 500 ft
< 800m
< 200 ft
Symbols :   Thunderstorms  Fog  Heavy snow  Heavy precipitations  Wind > 20 kt






- Airport Elevation : 1799 ft
- IATA code : YQW


CYQW - North Battleford

CURRENT METAR :
  • 191800Z AUTO VRB05KT 9SM CLR 27/12 A3011 RMK SLP198 DENSITY ALT 3400FT

EXPIRED METARs :
  • 191700Z AUTO 21006KT 120V240 9SM CLR 26/13 A3012 RMK SLP201 DENSITY ALT 3300FT
  • 191600Z AUTO 14004KT 100V190 9SM CLR 24/14 A3013 RMK SLP205 DENSITY ALT 3100FT
  • 191500Z AUTO 17003KT 120V190 9SM CLR 21/14 A3014 RMK SLP210 DENSITY ALT 2700FT

TAF TAF CYQW
Valid from the 19 at 18:00 until the 20 at 06:00 UTC


191740Z 1918/2006 VRB03KT P6SM SKC
BECMG 1918/1920 13010KT
FM200300 10008KT P6SM SKC RMK FCST BASED ON AUTO OBS. NXT FCST BY 200000Z
CZWG FIR / North America



MET'MAP, your aeronautical weather chart ! - Copyright ORBIFLY December 2007 - Disclaimer

ORBIFLY MET'MAP TEAM :

Programming & Development : Alexandra Zaïnal
Original concept : Baudouin d'Aumeries
Technical & hardware support : Manuel Goepfert
Assistance : Marc-Olivier Méhu




SOURCES & CREDITS :

   NOAA       Earth
Advisory